createdAt,value
2023-05-06T00:03:08.087Z,13.40
2023-05-06T00:08:10.445Z,13.30
2023-05-06T00:13:12.979Z,13.30
2023-05-06T00:18:15.300Z,13.30
2023-05-06T00:23:17.386Z,13.30
2023-05-06T00:28:19.403Z,13.30
2023-05-06T00:33:21.488Z,13.20
2023-05-06T00:38:23.768Z,13.20
2023-05-06T00:43:25.910Z,13.20
2023-05-06T00:48:28.410Z,13.20
2023-05-06T00:53:30.627Z,13.20
2023-05-06T00:58:34.223Z,13.20
2023-05-06T01:03:36.304Z,13.20
2023-05-06T01:08:47.845Z,13.20
2023-05-06T01:14:02.337Z,13.30
2023-05-06T01:19:08.931Z,13.30
2023-05-06T01:24:11.218Z,13.30
2023-05-06T01:29:13.497Z,13.30
2023-05-06T01:34:27.816Z,13.30
2023-05-06T01:39:32.196Z,13.30
2023-05-06T01:44:37.131Z,13.20
2023-05-06T01:49:39.748Z,13.20
2023-05-06T01:54:41.815Z,13.20
2023-05-06T01:59:43.927Z,13.10
2023-05-06T02:04:46.265Z,13.10
2023-05-06T02:09:48.380Z,13.10
2023-05-06T02:14:50.973Z,13.10
2023-05-06T02:19:53.075Z,13.00
2023-05-06T02:24:55.169Z,13.00
2023-05-06T02:29:57.294Z,13.00
2023-05-06T02:34:59.422Z,13.00
2023-05-06T02:40:01.648Z,13.00
2023-05-06T02:45:04.158Z,13.00
2023-05-06T02:50:26.124Z,13.00
2023-05-06T02:55:28.389Z,13.00
2023-05-06T03:00:31.259Z,13.00
2023-05-06T03:05:33.418Z,13.00
2023-05-06T03:10:35.818Z,13.00
2023-05-06T03:15:38.205Z,13.00
2023-05-06T03:20:40.320Z,13.00
2023-05-06T03:25:42.708Z,12.90
2023-05-06T03:30:44.985Z,12.90
2023-05-06T03:35:47.507Z,12.90
2023-05-06T03:40:50.612Z,12.90
2023-05-06T03:45:52.853Z,12.90
2023-05-06T03:50:55.604Z,12.90
2023-05-06T03:55:58.036Z,13.00
2023-05-06T04:01:01.104Z,12.90
2023-05-06T04:06:04.238Z,12.90
2023-05-06T04:11:07.396Z,12.90
2023-05-06T04:16:12.651Z,13.00
2023-05-06T04:21:18.929Z,13.00
2023-05-06T04:26:31.509Z,13.00
2023-05-06T04:31:35.069Z,13.00
2023-05-06T04:36:40.780Z,13.00
2023-05-06T04:42:02.391Z,13.00
2023-05-06T04:47:12.188Z,13.00
2023-05-06T04:52:17.531Z,13.00
2023-05-06T04:57:19.680Z,13.00
2023-05-06T05:02:22.151Z,13.00
2023-05-06T05:07:25.087Z,13.00
2023-05-06T05:12:27.292Z,13.10
2023-05-06T05:17:29.751Z,13.10
2023-05-06T05:22:32.703Z,13.10
2023-05-06T05:27:36.438Z,13.10
2023-05-06T05:32:38.833Z,13.10
2023-05-06T05:37:41.197Z,13.10
2023-05-06T05:42:44.259Z,13.10
2023-05-06T05:47:56.121Z,13.10
2023-05-06T05:52:58.948Z,13.20
2023-05-06T05:58:02.740Z,13.20
2023-05-06T06:03:06.377Z,13.20
2023-05-06T06:13:11.324Z,13.30
2023-05-06T06:18:13.560Z,13.40
2023-05-06T06:23:16.060Z,13.40
2023-05-06T06:28:18.235Z,13.40
2023-05-06T06:33:21.090Z,13.40
2023-05-06T06:38:23.370Z,13.50
2023-05-06T06:43:25.554Z,13.50
2023-05-06T06:48:34.461Z,13.50
2023-05-06T06:53:36.613Z,13.50
2023-05-06T06:58:38.796Z,13.50
2023-05-06T07:03:40.948Z,13.50
2023-05-06T07:08:43.067Z,13.60
2023-05-06T07:13:45.218Z,13.60
2023-05-06T07:18:48.008Z,13.70
2023-05-06T07:23:50.168Z,13.80
2023-05-06T07:28:52.408Z,14.00
2023-05-06T07:33:54.773Z,14.00
2023-05-06T07:38:57.416Z,14.00
2023-05-06T07:43:59.567Z,14.00
2023-05-06T07:49:02.163Z,13.90
2023-05-06T07:54:04.485Z,13.90
2023-05-06T07:59:06.753Z,13.90
2023-05-06T08:04:09.060Z,14.00
2023-05-06T08:09:16.890Z,14.10
2023-05-06T08:14:22.072Z,14.30
2023-05-06T08:19:24.176Z,14.30
2023-05-06T08:24:26.787Z,14.30
2023-05-06T08:29:28.884Z,14.40
2023-05-06T08:34:31.355Z,14.40
2023-05-06T08:39:33.488Z,14.60
2023-05-06T08:44:36.295Z,14.60
2023-05-06T08:49:38.553Z,14.80
2023-05-06T08:54:41.983Z,15.00
2023-05-06T08:59:45.146Z,15.10
2023-05-06T09:04:47.417Z,15.20
2023-05-06T09:09:49.602Z,15.50
2023-05-06T09:14:51.897Z,15.80
2023-05-06T09:19:56.996Z,15.80
2023-05-06T09:24:59.397Z,15.90
2023-05-06T09:30:09.017Z,16.00
2023-05-06T09:35:12.034Z,16.50
2023-05-06T09:40:14.741Z,16.90
2023-05-06T09:45:17.859Z,17.40
2023-05-06T09:50:22.281Z,17.30
2023-05-06T09:55:27.218Z,17.50
2023-05-06T10:00:31.531Z,18.30
2023-05-06T10:05:35.397Z,18.30
2023-05-06T10:10:40.420Z,18.10
2023-05-06T10:15:48.009Z,17.70
2023-05-06T10:20:53.621Z,17.40
2023-05-06T10:26:07.061Z,17.20
2023-05-06T10:31:13.963Z,17.20
2023-05-06T10:36:21.466Z,17.70
2023-05-06T10:41:26.238Z,17.80
2023-05-06T10:46:29.942Z,17.80
2023-05-06T10:51:36.487Z,17.90
2023-05-06T10:57:02.918Z,18.10
2023-05-06T11:02:05.084Z,18.40
2023-05-06T11:07:15.732Z,18.90
2023-05-06T11:12:21.146Z,19.80
2023-05-06T11:17:31.517Z,19.60
2023-05-06T11:22:40.960Z,19.80
2023-05-06T11:27:43.091Z,19.40
2023-05-06T11:32:46.782Z,19.20
2023-05-06T11:37:49.008Z,19.10
2023-05-06T11:42:51.186Z,19.90
2023-05-06T11:47:55.340Z,20.20
2023-05-06T11:52:58.566Z,20.00
2023-05-06T11:58:00.882Z,19.70
2023-05-06T12:03:03.997Z,19.70
2023-05-06T12:08:13.310Z,20.90
2023-05-06T12:13:22.285Z,21.40
2023-05-06T12:18:25.078Z,20.90
2023-05-06T12:23:27.293Z,20.30
2023-05-06T12:28:31.066Z,20.40
2023-05-06T12:33:47.321Z,21.00
2023-05-06T12:38:59.064Z,20.60
2023-05-06T12:44:01.190Z,20.50
2023-05-06T12:49:03.678Z,20.90
2023-05-06T12:54:29.248Z,21.60
2023-05-06T12:59:31.797Z,21.60
2023-05-06T13:04:34.137Z,20.90
2023-05-06T13:09:36.342Z,20.60
2023-05-06T13:14:40.237Z,20.70
2023-05-06T13:19:42.775Z,20.90
2023-05-06T13:24:45.094Z,20.80
2023-05-06T13:29:47.198Z,21.30
2023-05-06T13:34:49.439Z,21.00
2023-05-06T13:39:51.568Z,21.60
2023-05-06T13:44:53.615Z,21.20
2023-05-06T13:49:56.156Z,21.20
2023-05-06T13:54:58.405Z,21.00
2023-05-06T14:00:00.699Z,20.70
2023-05-06T14:05:03.366Z,21.50
2023-05-06T14:10:06.076Z,21.70
2023-05-06T14:15:12.093Z,21.90
2023-05-06T14:20:14.560Z,21.60
2023-05-06T14:25:16.816Z,21.10
2023-05-06T14:30:20.392Z,21.30
2023-05-06T14:35:22.713Z,21.90
2023-05-06T14:40:24.929Z,21.40
2023-05-06T14:45:27.359Z,21.00
2023-05-06T14:50:31.041Z,20.90
2023-05-06T14:55:33.114Z,20.80
2023-05-06T15:00:35.280Z,21.00
2023-05-06T15:05:37.390Z,21.00
2023-05-06T15:10:40.841Z,20.90
2023-05-06T15:15:42.976Z,21.10
2023-05-06T15:20:45.028Z,20.60
2023-05-06T15:25:47.146Z,20.80
2023-05-06T15:30:49.196Z,20.80
2023-05-06T15:35:51.259Z,20.60
2023-05-06T15:40:53.406Z,20.80
2023-05-06T15:45:56.806Z,20.70
2023-05-06T15:51:00.307Z,20.70
2023-05-06T15:56:13.282Z,21.20
2023-05-06T16:01:23.767Z,21.50
2023-05-06T16:06:37.954Z,22.30
2023-05-06T16:11:44.116Z,21.90
2023-05-06T16:16:47.251Z,20.80
2023-05-06T16:21:49.664Z,21.00
2023-05-06T16:26:51.918Z,22.00
2023-05-06T16:31:54.052Z,22.30
2023-05-06T16:36:57.308Z,21.50
2023-05-06T16:41:59.335Z,19.90
2023-05-06T16:47:01.605Z,19.50
2023-05-06T16:52:05.016Z,19.50
2023-05-06T16:57:07.195Z,19.30
2023-05-06T17:02:09.759Z,19.40
2023-05-06T17:07:11.995Z,19.20
2023-05-06T17:12:14.410Z,19.10
2023-05-06T17:17:16.545Z,19.00
2023-05-06T17:22:20.563Z,18.90
2023-05-06T17:27:22.657Z,18.80
2023-05-06T17:32:24.846Z,18.70
2023-05-06T17:37:27.199Z,18.70
2023-05-06T17:42:29.347Z,18.60
2023-05-06T17:47:31.419Z,18.70
2023-05-06T17:52:33.604Z,18.80
2023-05-06T17:57:35.685Z,18.60
2023-05-06T18:02:37.897Z,18.40
2023-05-06T18:07:40.165Z,18.30
2023-05-06T18:12:45.326Z,18.10
2023-05-06T18:17:47.426Z,18.00
2023-05-06T18:22:49.657Z,18.00
2023-05-06T18:27:52.127Z,17.90
2023-05-06T18:32:56.524Z,17.80
2023-05-06T18:37:58.851Z,17.70
2023-05-06T18:43:01.260Z,17.50
2023-05-06T18:48:03.875Z,17.30
2023-05-06T18:53:06.029Z,17.20
2023-05-06T18:58:08.160Z,17.10
2023-05-06T19:03:10.407Z,16.90
2023-05-06T19:08:13.855Z,16.90
2023-05-06T19:13:15.959Z,16.90
2023-05-06T19:18:18.260Z,16.90
2023-05-06T19:23:20.401Z,16.80
2023-05-06T19:28:22.446Z,16.80
2023-05-06T19:33:24.719Z,16.70
2023-05-06T19:38:26.948Z,16.60
2023-05-06T19:43:29.233Z,16.60
2023-05-06T19:48:32.701Z,16.60
2023-05-06T19:53:36.572Z,16.50
2023-05-06T19:58:39.623Z,16.40
2023-05-06T20:03:41.974Z,16.40
2023-05-06T20:08:44.192Z,16.10
2023-05-06T20:13:46.256Z,15.80
2023-05-06T20:18:48.310Z,15.60
2023-05-06T20:23:50.376Z,15.40
2023-05-06T20:28:53.241Z,15.00
2023-05-06T20:33:55.778Z,14.80
2023-05-06T20:38:58.045Z,14.70
2023-05-06T20:44:00.180Z,14.70
2023-05-06T20:49:02.303Z,14.70
2023-05-06T20:54:04.520Z,14.70
2023-05-06T20:59:08.343Z,14.70
2023-05-06T21:04:10.974Z,14.80
2023-05-06T21:09:13.096Z,14.80
2023-05-06T21:14:15.306Z,14.80
2023-05-06T21:19:17.404Z,14.80
2023-05-06T21:24:19.523Z,14.80
2023-05-06T21:29:21.707Z,14.80
2023-05-06T21:34:23.825Z,14.80
2023-05-06T21:39:26.044Z,14.80
2023-05-06T21:44:28.123Z,14.80
2023-05-06T21:49:30.171Z,14.80
2023-05-06T21:54:32.320Z,14.80
2023-05-06T21:59:35.743Z,14.80
2023-05-06T22:04:37.783Z,14.80
2023-05-06T22:09:39.845Z,14.80
2023-05-06T22:14:42.004Z,14.80
2023-05-06T22:19:44.197Z,14.70
2023-05-06T22:24:48.310Z,14.60
2023-05-06T22:29:50.467Z,14.50
2023-05-06T22:34:52.658Z,14.40
2023-05-06T22:39:57.529Z,14.20
2023-05-06T22:44:59.585Z,14.10
2023-05-06T22:50:01.886Z,14.10
2023-05-06T22:55:05.927Z,13.90
2023-05-06T23:00:12.485Z,13.80
2023-05-06T23:05:14.974Z,13.60
2023-05-06T23:10:17.124Z,13.50
2023-05-06T23:15:19.185Z,13.40
2023-05-06T23:20:22.054Z,13.40
2023-05-06T23:25:24.138Z,13.40
2023-05-06T23:30:26.334Z,13.40
2023-05-06T23:35:28.465Z,13.30
2023-05-06T23:40:30.552Z,13.30
2023-05-06T23:45:32.573Z,13.30
2023-05-06T23:50:34.763Z,13.40
2023-05-06T23:55:37.367Z,13.20
